Terminal Aerodrome Forecast
Issued by NWS Flagstaff, AZ

Home | Current Version | Previous Version | Text Only | Print | Product List | Glossary On
Versions: 1 2 3 4 5 6 7 8 9 10 11 12
000
FTUS45 KFGZ 180500
TAFFLG
TAF
KFLG 180535Z 1806/1906 VRB05KT P6SM BKN250
     FM181800 20016G24KT P6SM SCT080 OVC140 PROB30 1820/1902 -SHRA
      BKN060CB
     FM190200 VRB05KT P6SM BKN060 PROB30 1902/1906 -SHRA BKN040=

USA.gov is the U.S. government's official web portal to all federal, state and local government web resources and services.